sensor_id;sensor_type;location;lat;lon;timestamp;pressure;altitude;pressure_sealevel;temperature;humidity
78198;BME280;67472;51.554;7.812;2023-03-20T00:01:57;101012.09;;;10.63;100.00
78198;BME280;67472;51.554;7.812;2023-03-20T00:04:42;101009.59;;;10.61;100.00
78198;BME280;67472;51.554;7.812;2023-03-20T00:07:27;101009.94;;;10.68;100.00
78198;BME280;67472;51.554;7.812;2023-03-20T00:10:12;101010.19;;;10.76;100.00
78198;BME280;67472;51.554;7.812;2023-03-20T00:12:57;101014.03;;;10.72;100.00
78198;BME280;67472;51.554;7.812;2023-03-20T00:15:44;101012.84;;;10.76;100.00
78198;BME280;67472;51.554;7.812;2023-03-20T00:18:28;101022.06;;;10.70;100.00
78198;BME280;67472;51.554;7.812;2023-03-20T00:21:16;101021.84;;;10.73;100.00
78198;BME280;67472;51.554;7.812;2023-03-20T00:24:01;101016.56;;;10.73;100.00
78198;BME280;67472;51.554;7.812;2023-03-20T00:26:48;101027.00;;;10.64;100.00
78198;BME280;67472;51.554;7.812;2023-03-20T00:29:34;101021.44;;;10.45;100.00
78198;BME280;67472;51.554;7.812;2023-03-20T00:32:18;101031.75;;;10.48;100.00
78198;BME280;67472;51.554;7.812;2023-03-20T00:35:20;101035.84;;;10.41;100.00
78198;BME280;67472;51.554;7.812;2023-03-20T00:38:04;101036.16;;;10.36;100.00
78198;BME280;67472;51.554;7.812;2023-03-20T00:40:52;101043.97;;;10.27;100.00
78198;BME280;67472;51.554;7.812;2023-03-20T00:43:37;101037.00;;;10.26;100.00
78198;BME280;67472;51.554;7.812;2023-03-20T00:46:22;101047.91;;;10.21;100.00
78198;BME280;67472;51.554;7.812;2023-03-20T00:49:10;101044.34;;;10.33;100.00
78198;BME280;67472;51.554;7.812;2023-03-20T00:51:57;101052.00;;;10.36;100.00
78198;BME280;67472;51.554;7.812;2023-03-20T00:54:42;101044.44;;;10.20;100.00
78198;BME280;67472;51.554;7.812;2023-03-20T00:57:39;101048.78;;;10.09;100.00
78198;BME280;67472;51.554;7.812;2023-03-20T01:00:37;101051.44;;;10.09;100.00
78198;BME280;67472;51.554;7.812;2023-03-20T01:03:24;101056.00;;;10.07;100.00
78198;BME280;67472;51.554;7.812;2023-03-20T01:06:11;101049.47;;;10.00;100.00
78198;BME280;67472;51.554;7.812;2023-03-20T01:08:56;101050.09;;;10.03;100.00
78198;BME280;67472;51.554;7.812;2023-03-20T01:11:44;101058.56;;;9.96;100.00
78198;BME280;67472;51.554;7.812;2023-03-20T01:14:29;101061.09;;;9.97;100.00
78198;BME280;67472;51.554;7.812;2023-03-20T01:17:19;101057.84;;;9.94;100.00
78198;BME280;67472;51.554;7.812;2023-03-20T01:20:16;101058.69;;;9.94;100.00
78198;BME280;67472;51.554;7.812;2023-03-20T01:23:01;101058.19;;;9.89;100.00
78198;BME280;67472;51.554;7.812;2023-03-20T01:25:47;101058.97;;;9.79;100.00
78198;BME280;67472;51.554;7.812;2023-03-20T01:28:32;101057.84;;;9.70;100.00
78198;BME280;67472;51.554;7.812;2023-03-20T01:31:17;101058.41;;;9.62;100.00
78198;BME280;67472;51.554;7.812;2023-03-20T01:34:02;101057.75;;;9.72;100.00
78198;BME280;67472;51.554;7.812;2023-03-20T01:36:53;101051.94;;;9.66;100.00
78198;BME280;67472;51.554;7.812;2023-03-20T01:39:38;101056.84;;;9.60;100.00
78198;BME280;67472;51.554;7.812;2023-03-20T01:42:23;101064.84;;;9.58;100.00
78198;BME280;67472;51.554;7.812;2023-03-20T01:45:15;101054.44;;;9.57;100.00
78198;BME280;67472;51.554;7.812;2023-03-20T01:48:14;101056.84;;;9.60;100.00
78198;BME280;67472;51.554;7.812;2023-03-20T01:51:00;101064.00;;;9.58;100.00
78198;BME280;67472;51.554;7.812;2023-03-20T01:53:48;101053.13;;;9.39;100.00
78198;BME280;67472;51.554;7.812;2023-03-20T01:56:39;101064.50;;;9.39;100.00
78198;BME280;67472;51.554;7.812;2023-03-20T01:59:34;101068.53;;;9.32;100.00
78198;BME280;67472;51.554;7.812;2023-03-20T02:02:24;101074.34;;;9.25;100.00
78198;BME280;67472;51.554;7.812;2023-03-20T02:05:12;101072.44;;;9.27;100.00
78198;BME280;67472;51.554;7.812;2023-03-20T02:10:56;101077.41;;;9.19;100.00
78198;BME280;67472;51.554;7.812;2023-03-20T02:13:46;101086.03;;;9.21;100.00
78198;BME280;67472;51.554;7.812;2023-03-20T02:16:31;101084.97;;;9.23;100.00
78198;BME280;67472;51.554;7.812;2023-03-20T02:25:57;101053.28;;;9.12;100.00
78198;BME280;67472;51.554;7.812;2023-03-20T02:38:45;101059.09;;;9.04;100.00
78198;BME280;67472;51.554;7.812;2023-03-20T02:48:33;101067.94;;;9.16;100.00
78198;BME280;67472;51.554;7.812;2023-03-20T02:51:04;101065.31;;;9.03;100.00
78198;BME280;67472;51.554;7.812;2023-03-20T02:54:27;101064.16;;;9.07;100.00
78198;BME280;67472;51.554;7.812;2023-03-20T03:00:27;101057.81;;;9.10;100.00
78198;BME280;67472;51.554;7.812;2023-03-20T03:03:21;101057.81;;;9.10;100.00
78198;BME280;67472;51.554;7.812;2023-03-20T03:06:16;101048.84;;;9.13;100.00
78198;BME280;67472;51.554;7.812;2023-03-20T03:12:05;101053.47;;;9.22;100.00
78198;BME280;67472;51.554;7.812;2023-03-20T03:14:56;101051.28;;;9.16;100.00
78198;BME280;67472;51.554;7.812;2023-03-20T03:17:44;101052.97;;;9.17;100.00
78198;BME280;67472;51.554;7.812;2023-03-20T03:20:35;101070.56;;;9.16;100.00
78198;BME280;67472;51.554;7.812;2023-03-20T03:23:27;101072.47;;;9.14;100.00
78198;BME280;67472;51.554;7.812;2023-03-20T03:26:25;101072.13;;;9.19;100.00
78198;BME280;67472;51.554;7.812;2023-03-20T03:29:16;101073.56;;;8.99;100.00
78198;BME280;67472;51.554;7.812;2023-03-20T03:32:05;101072.78;;;8.97;100.00
78198;BME280;67472;51.554;7.812;2023-03-20T03:34:51;101083.78;;;8.91;100.00
78198;BME280;67472;51.554;7.812;2023-03-20T03:47:06;101074.19;;;8.90;100.00
78198;BME280;67472;51.554;7.812;2023-03-20T03:49:57;101067.72;;;8.94;100.00
78198;BME280;67472;51.554;7.812;2023-03-20T03:52:45;101062.38;;;8.83;100.00
78198;BME280;67472;51.554;7.812;2023-03-20T03:55:42;101048.16;;;8.85;100.00
78198;BME280;67472;51.554;7.812;2023-03-20T03:58:36;101041.31;;;8.95;100.00
78198;BME280;67472;51.554;7.812;2023-03-20T04:01:25;101031.69;;;8.94;100.00
78198;BME280;67472;51.554;7.812;2023-03-20T04:04:13;101029.50;;;8.88;100.00
78198;BME280;67472;51.554;7.812;2023-03-20T04:06:59;101026.78;;;8.77;100.00
78198;BME280;67472;51.554;7.812;2023-03-20T04:09:45;101022.34;;;8.78;100.00
78198;BME280;67472;51.554;7.812;2023-03-20T04:15:18;101017.41;;;8.73;100.00
78198;BME280;67472;51.554;7.812;2023-03-20T04:18:05;101010.16;;;8.64;100.00
78198;BME280;67472;51.554;7.812;2023-03-20T04:20:50;101010.47;;;8.47;100.00
78198;BME280;67472;51.554;7.812;2023-03-20T04:23:36;101010.91;;;8.41;100.00
78198;BME280;67472;51.554;7.812;2023-03-20T04:26:21;100996.25;;;8.37;100.00
78198;BME280;67472;51.554;7.812;2023-03-20T04:29:07;100993.81;;;8.34;100.00
78198;BME280;67472;51.554;7.812;2023-03-20T04:31:55;101000.34;;;8.28;100.00
78198;BME280;67472;51.554;7.812;2023-03-20T04:35:15;101005.16;;;8.22;100.00
78198;BME280;67472;51.554;7.812;2023-03-20T04:38:09;101013.41;;;8.30;100.00
78198;BME280;67472;51.554;7.812;2023-03-20T04:40:55;101018.31;;;8.22;100.00
78198;BME280;67472;51.554;7.812;2023-03-20T04:43:40;101020.94;;;8.22;100.00
78198;BME280;67472;51.554;7.812;2023-03-20T04:46:25;101014.72;;;8.10;100.00
78198;BME280;67472;51.554;7.812;2023-03-20T04:49:11;101016.28;;;8.13;100.00
78198;BME280;67472;51.554;7.812;2023-03-20T04:51:56;101018.81;;;8.14;100.00
78198;BME280;67472;51.554;7.812;2023-03-20T04:54:53;101024.19;;;8.13;100.00
78198;BME280;67472;51.554;7.812;2023-03-20T04:57:38;101029.69;;;8.10;100.00
78198;BME280;67472;51.554;7.812;2023-03-20T05:00:23;101017.91;;;8.15;100.00
78198;BME280;67472;51.554;7.812;2023-03-20T05:03:08;101019.16;;;8.22;100.00
78198;BME280;67472;51.554;7.812;2023-03-20T05:05:53;101009.16;;;8.15;100.00
78198;BME280;67472;51.554;7.812;2023-03-20T05:08:38;101014.63;;;8.12;100.00
78198;BME280;67472;51.554;7.812;2023-03-20T05:11:24;101008.91;;;8.05;100.00
78198;BME280;67472;51.554;7.812;2023-03-20T05:14:28;101004.38;;;7.94;100.00
78198;BME280;67472;51.554;7.812;2023-03-20T05:17:30;101007.94;;;7.93;100.00
78198;BME280;67472;51.554;7.812;2023-03-20T05:20:50;101009.84;;;7.91;100.00
78198;BME280;67472;51.554;7.812;2023-03-20T05:23:53;101012.69;;;7.88;100.00
78198;BME280;67472;51.554;7.812;2023-03-20T05:26:38;101003.50;;;7.81;100.00
78198;BME280;67472;51.554;7.812;2023-03-20T05:29:42;101013.53;;;7.89;100.00
78198;BME280;67472;51.554;7.812;2023-03-20T05:32:39;101021.22;;;8.05;100.00
78198;BME280;67472;51.554;7.812;2023-03-20T05:35:39;101018.28;;;7.96;100.00
78198;BME280;67472;51.554;7.812;2023-03-20T05:38:47;101015.63;;;7.96;100.00
78198;BME280;67472;51.554;7.812;2023-03-20T05:41:43;101017.75;;;7.91;100.00
78198;BME280;67472;51.554;7.812;2023-03-20T05:44:47;101015.31;;;7.88;100.00
78198;BME280;67472;51.554;7.812;2023-03-20T05:47:50;101025.31;;;7.83;100.00
78198;BME280;67472;51.554;7.812;2023-03-20T05:50:48;101027.59;;;7.88;100.00
78198;BME280;67472;51.554;7.812;2023-03-20T05:53:53;101029.09;;;7.92;100.00
78198;BME280;67472;51.554;7.812;2023-03-20T05:57:08;101022.16;;;7.91;100.00
78198;BME280;67472;51.554;7.812;2023-03-20T06:00:11;101023.16;;;7.76;100.00
78198;BME280;67472;51.554;7.812;2023-03-20T06:03:19;101033.06;;;7.85;100.00
78198;BME280;67472;51.554;7.812;2023-03-20T06:06:18;101036.63;;;7.84;100.00
78198;BME280;67472;51.554;7.812;2023-03-20T06:09:07;101033.19;;;7.83;100.00
78198;BME280;67472;51.554;7.812;2023-03-20T06:11:52;101034.97;;;7.83;100.00
78198;BME280;67472;51.554;7.812;2023-03-20T06:14:37;101043.59;;;7.85;100.00
78198;BME280;67472;51.554;7.812;2023-03-20T06:17:25;101038.47;;;7.96;100.00
78198;BME280;67472;51.554;7.812;2023-03-20T06:20:17;101041.13;;;8.09;100.00
78198;BME280;67472;51.554;7.812;2023-03-20T06:23:02;101033.78;;;8.14;100.00
78198;BME280;67472;51.554;7.812;2023-03-20T06:25:48;101029.69;;;8.10;100.00
78198;BME280;67472;51.554;7.812;2023-03-20T06:28:34;101027.34;;;8.05;100.00
78198;BME280;67472;51.554;7.812;2023-03-20T06:31:24;101022.19;;;8.04;100.00
78198;BME280;67472;51.554;7.812;2023-03-20T06:34:09;101028.72;;;8.11;100.00
78198;BME280;67472;51.554;7.812;2023-03-20T06:37:00;101031.13;;;8.14;100.00
78198;BME280;67472;51.554;7.812;2023-03-20T06:39:46;101028.31;;;8.17;100.00
78198;BME280;67472;51.554;7.812;2023-03-20T06:42:32;101029.25;;;8.16;100.00
78198;BME280;67472;51.554;7.812;2023-03-20T06:45:19;101031.25;;;8.25;100.00
78198;BME280;67472;51.554;7.812;2023-03-20T06:48:18;101029.69;;;8.22;100.00
78198;BME280;67472;51.554;7.812;2023-03-20T06:51:06;101044.00;;;8.18;100.00
78198;BME280;67472;51.554;7.812;2023-03-20T06:53:56;101038.75;;;8.18;100.00
78198;BME280;67472;51.554;7.812;2023-03-20T06:56:45;101047.03;;;8.25;100.00
78198;BME280;67472;51.554;7.812;2023-03-20T06:59:29;101050.84;;;8.21;100.00
78198;BME280;67472;51.554;7.812;2023-03-20T07:02:15;101051.19;;;8.29;100.00
78198;BME280;67472;51.554;7.812;2023-03-20T07:05:01;101049.22;;;8.32;100.00
78198;BME280;67472;51.554;7.812;2023-03-20T07:07:47;101057.00;;;8.34;100.00
78198;BME280;67472;51.554;7.812;2023-03-20T07:10:33;101046.38;;;8.35;100.00
78198;BME280;67472;51.554;7.812;2023-03-20T07:13:17;101047.44;;;8.33;100.00
78198;BME280;67472;51.554;7.812;2023-03-20T07:16:03;101054.69;;;8.29;100.00
78198;BME280;67472;51.554;7.812;2023-03-20T07:18:50;101062.38;;;8.32;100.00
78198;BME280;67472;51.554;7.812;2023-03-20T07:21:35;101055.41;;;8.31;100.00
78198;BME280;67472;51.554;7.812;2023-03-20T07:24:20;101063.81;;;8.36;100.00
78198;BME280;67472;51.554;7.812;2023-03-20T07:27:05;101058.91;;;8.44;100.00
78198;BME280;67472;51.554;7.812;2023-03-20T07:29:52;101054.69;;;8.55;100.00
78198;BME280;67472;51.554;7.812;2023-03-20T07:32:38;101064.28;;;8.56;100.00
78198;BME280;67472;51.554;7.812;2023-03-20T07:35:22;101070.28;;;8.58;100.00
78198;BME280;67472;51.554;7.812;2023-03-20T07:38:09;101069.88;;;8.64;100.00
78198;BME280;67472;51.554;7.812;2023-03-20T07:41:03;101068.72;;;8.68;100.00
78198;BME280;67472;51.554;7.812;2023-03-20T07:43:49;101069.88;;;8.76;100.00
78198;BME280;67472;51.554;7.812;2023-03-20T07:47:06;101067.97;;;8.91;100.00
78198;BME280;67472;51.554;7.812;2023-03-20T07:49:51;101066.16;;;8.91;100.00
78198;BME280;67472;51.554;7.812;2023-03-20T07:52:36;101058.16;;;8.93;100.00
78198;BME280;67472;51.554;7.812;2023-03-20T07:55:21;101052.78;;;8.94;100.00
78198;BME280;67472;51.554;7.812;2023-03-20T07:58:06;101039.19;;;9.00;100.00
78198;BME280;67472;51.554;7.812;2023-03-20T08:00:52;101031.44;;;9.23;100.00
78198;BME280;67472;51.554;7.812;2023-03-20T08:03:37;101031.75;;;9.31;100.00
78198;BME280;67472;51.554;7.812;2023-03-20T08:06:23;101035.38;;;9.41;100.00
78198;BME280;67472;51.554;7.812;2023-03-20T08:09:08;101036.94;;;9.43;100.00
78198;BME280;67472;51.554;7.812;2023-03-20T08:11:53;101035.16;;;9.44;100.00
78198;BME280;67472;51.554;7.812;2023-03-20T08:14:38;101034.91;;;9.59;100.00
78198;BME280;67472;51.554;7.812;2023-03-20T08:17:23;101024.75;;;9.66;100.00
78198;BME280;67472;51.554;7.812;2023-03-20T08:20:09;101028.50;;;9.75;100.00
78198;BME280;67472;51.554;7.812;2023-03-20T08:22:54;101023.50;;;9.83;100.00
78198;BME280;67472;51.554;7.812;2023-03-20T08:25:39;101034.94;;;9.94;100.00
78198;BME280;67472;51.554;7.812;2023-03-20T08:28:24;101029.50;;;9.85;100.00
78198;BME280;67472;51.554;7.812;2023-03-20T08:31:09;101019.53;;;9.77;100.00
78198;BME280;67472;51.554;7.812;2023-03-20T08:33:55;101021.34;;;9.88;100.00
78198;BME280;67472;51.554;7.812;2023-03-20T08:36:40;101011.69;;;9.99;100.00
78198;BME280;67472;51.554;7.812;2023-03-20T08:39:25;101027.06;;;10.05;100.00
78198;BME280;67472;51.554;7.812;2023-03-20T08:42:10;101029.44;;;10.21;100.00
78198;BME280;67472;51.554;7.812;2023-03-20T08:44:55;101034.25;;;10.27;100.00
78198;BME280;67472;51.554;7.812;2023-03-20T08:47:40;101023.72;;;10.49;100.00
78198;BME280;67472;51.554;7.812;2023-03-20T08:50:25;101014.50;;;10.55;100.00
78198;BME280;67472;51.554;7.812;2023-03-20T08:53:10;101018.91;;;10.43;100.00
78198;BME280;67472;51.554;7.812;2023-03-20T08:55:55;101012.91;;;10.41;100.00
78198;BME280;67472;51.554;7.812;2023-03-20T08:58:40;101006.78;;;10.30;100.00
78198;BME280;67472;51.554;7.812;2023-03-20T09:01:25;101003.06;;;10.32;100.00
78198;BME280;67472;51.554;7.812;2023-03-20T09:04:12;101017.59;;;10.38;100.00
78198;BME280;67472;51.554;7.812;2023-03-20T09:06:57;101015.19;;;10.46;100.00
78198;BME280;67472;51.554;7.812;2023-03-20T09:09:42;101008.56;;;10.18;100.00
78198;BME280;67472;51.554;7.812;2023-03-20T09:12:27;101011.84;;;10.09;100.00
78198;BME280;67472;51.554;7.812;2023-03-20T09:15:12;101014.69;;;9.95;100.00
78198;BME280;67472;51.554;7.812;2023-03-20T09:17:57;101022.25;;;9.99;100.00
78198;BME280;67472;51.554;7.812;2023-03-20T09:20:42;101019.44;;;9.90;100.00
78198;BME280;67472;51.554;7.812;2023-03-20T09:23:27;101028.84;;;10.29;100.00
78198;BME280;67472;51.554;7.812;2023-03-20T09:26:12;101020.09;;;10.04;100.00
78198;BME280;67472;51.554;7.812;2023-03-20T09:28:57;101012.41;;;10.01;100.00
78198;BME280;67472;51.554;7.812;2023-03-20T09:31:42;101004.44;;;10.14;100.00
78198;BME280;67472;51.554;7.812;2023-03-20T09:34:27;101010.97;;;10.21;100.00
78198;BME280;67472;51.554;7.812;2023-03-20T09:37:13;101011.66;;;10.23;100.00
78198;BME280;67472;51.554;7.812;2023-03-20T09:39:58;101002.75;;;10.13;100.00
78198;BME280;67472;51.554;7.812;2023-03-20T09:43:37;101010.97;;;10.32;100.00
78198;BME280;67472;51.554;7.812;2023-03-20T09:46:16;101009.41;;;10.18;100.00
78198;BME280;67472;51.554;7.812;2023-03-20T09:52:29;101020.31;;;10.25;100.00
78198;BME280;67472;51.554;7.812;2023-03-20T09:55:19;101006.75;;;10.18;100.00
78198;BME280;67472;51.554;7.812;2023-03-20T09:58:22;101003.91;;;10.44;100.00
78198;BME280;67472;51.554;7.812;2023-03-20T10:01:12;101005.94;;;10.29;100.00
78198;BME280;67472;51.554;7.812;2023-03-20T10:04:05;100993.81;;;10.27;100.00
78198;BME280;67472;51.554;7.812;2023-03-20T10:06:52;100988.28;;;10.30;100.00
78198;BME280;67472;51.554;7.812;2023-03-20T10:09:37;100988.84;;;10.22;100.00
78198;BME280;67472;51.554;7.812;2023-03-20T10:24:05;100988.41;;;10.28;100.00
78198;BME280;67472;51.554;7.812;2023-03-20T10:26:51;100989.50;;;10.37;100.00
78198;BME280;67472;51.554;7.812;2023-03-20T10:29:47;101000.31;;;10.45;100.00
78198;BME280;67472;51.554;7.812;2023-03-20T10:32:44;100977.38;;;10.34;100.00
78198;BME280;67472;51.554;7.812;2023-03-20T10:35:48;100989.88;;;10.43;100.00
78198;BME280;67472;51.554;7.812;2023-03-20T10:38:59;100983.41;;;10.69;100.00
78198;BME280;67472;51.554;7.812;2023-03-20T10:41:52;100972.47;;;10.74;100.00
78198;BME280;67472;51.554;7.812;2023-03-20T10:44:39;100977.16;;;10.93;100.00
78198;BME280;67472;51.554;7.812;2023-03-20T10:47:29;100965.97;;;10.89;100.00
78198;BME280;67472;51.554;7.812;2023-03-20T10:50:29;100958.06;;;10.78;97.68
78198;BME280;67472;51.554;7.812;2023-03-20T10:53:45;100963.81;;;10.83;98.36
78198;BME280;67472;51.554;7.812;2023-03-20T10:56:41;100966.59;;;10.70;97.94
78198;BME280;67472;51.554;7.812;2023-03-20T10:59:35;100964.53;;;10.74;98.88
78198;BME280;67472;51.554;7.812;2023-03-20T11:02:26;100966.59;;;10.82;98.46
78198;BME280;67472;51.554;7.812;2023-03-20T11:05:22;100954.22;;;10.82;96.27
78198;BME280;67472;51.554;7.812;2023-03-20T11:08:13;100942.19;;;10.89;94.68
78198;BME280;67472;51.554;7.812;2023-03-20T11:11:00;100949.41;;;10.87;95.17
78198;BME280;67472;51.554;7.812;2023-03-20T11:13:45;100952.66;;;10.91;95.83
78198;BME280;67472;51.554;7.812;2023-03-20T11:16:33;100946.88;;;10.74;93.64
78198;BME280;67472;51.554;7.812;2023-03-20T11:19:21;100952.03;;;10.87;93.54
78198;BME280;67472;51.554;7.812;2023-03-20T11:22:26;100944.34;;;10.95;92.77
78198;BME280;67472;51.554;7.812;2023-03-20T11:25:31;100947.13;;;10.94;92.99
78198;BME280;67472;51.554;7.812;2023-03-20T11:28:19;100946.25;;;11.04;93.37
78198;BME280;67472;51.554;7.812;2023-03-20T11:31:19;100938.31;;;11.04;93.20
78198;BME280;67472;51.554;7.812;2023-03-20T11:36:58;100941.22;;;11.01;92.49
78198;BME280;67472;51.554;7.812;2023-03-20T11:40:30;100942.63;;;11.16;93.87
78198;BME280;67472;51.554;7.812;2023-03-20T11:43:20;100932.06;;;11.48;93.13
78198;BME280;67472;51.554;7.812;2023-03-20T11:46:08;100922.88;;;11.20;90.18
78198;BME280;67472;51.554;7.812;2023-03-20T11:49:04;100921.56;;;11.15;90.58
78198;BME280;67472;51.554;7.812;2023-03-20T11:51:50;100915.72;;;11.00;89.88
78198;BME280;67472;51.554;7.812;2023-03-20T11:54:38;100912.97;;;11.02;89.22
78198;BME280;67472;51.554;7.812;2023-03-20T11:57:40;100918.34;;;11.22;89.55
78198;BME280;67472;51.554;7.812;2023-03-20T12:00:46;100909.50;;;11.01;87.01
78198;BME280;67472;51.554;7.812;2023-03-20T12:03:52;100907.63;;;11.24;87.02
78198;BME280;67472;51.554;7.812;2023-03-20T12:09:33;100897.22;;;11.11;86.85
78198;BME280;67472;51.554;7.812;2023-03-20T12:15:30;100901.81;;;11.30;87.06
78198;BME280;67472;51.554;7.812;2023-03-20T12:18:25;100908.63;;;11.44;87.43
78198;BME280;67472;51.554;7.812;2023-03-20T12:24:32;100906.56;;;11.47;86.24
78198;BME280;67472;51.554;7.812;2023-03-20T12:27:29;100901.91;;;11.40;86.65
78198;BME280;67472;51.554;7.812;2023-03-20T12:30:49;100904.56;;;11.40;86.42
78198;BME280;67472;51.554;7.812;2023-03-20T12:34:00;100902.06;;;11.27;85.39
78198;BME280;67472;51.554;7.812;2023-03-20T12:36:49;100907.47;;;11.37;86.08
78198;BME280;67472;51.554;7.812;2023-03-20T12:39:37;100908.38;;;11.47;86.67
78198;BME280;67472;51.554;7.812;2023-03-20T12:45:40;100888.03;;;11.47;82.22
78198;BME280;67472;51.554;7.812;2023-03-20T12:51:41;100895.31;;;11.66;83.64
78198;BME280;67472;51.554;7.812;2023-03-20T13:07:02;100901.03;;;11.18;82.37
78198;BME280;67472;51.554;7.812;2023-03-20T13:19:16;100914.91;;;10.89;84.92
78198;BME280;67472;51.554;7.812;2023-03-20T13:27:59;100936.94;;;10.67;90.35
78198;BME280;67472;51.554;7.812;2023-03-20T13:30:55;100939.69;;;10.54;90.50
78198;BME280;67472;51.554;7.812;2023-03-20T13:36:46;100958.66;;;10.37;93.34
78198;BME280;67472;51.554;7.812;2023-03-20T13:39:43;100951.81;;;10.46;95.45
78198;BME280;67472;51.554;7.812;2023-03-20T13:42:37;100956.38;;;10.44;96.05
78198;BME280;67472;51.554;7.812;2023-03-20T13:45:35;100951.56;;;10.38;96.96
78198;BME280;67472;51.554;7.812;2023-03-20T13:51:44;100943.50;;;10.28;95.32
78198;BME280;67472;51.554;7.812;2023-03-20T14:00:42;100927.56;;;10.41;96.13
78198;BME280;67472;51.554;7.812;2023-03-20T14:03:33;100924.69;;;10.55;95.72
78198;BME280;67472;51.554;7.812;2023-03-20T14:09:36;100924.06;;;10.62;96.77
78198;BME280;67472;51.554;7.812;2023-03-20T14:12:24;100926.13;;;10.48;96.20
78198;BME280;67472;51.554;7.812;2023-03-20T14:15:10;100934.41;;;10.43;98.75
78198;BME280;67472;51.554;7.812;2023-03-20T14:17:56;100927.56;;;10.52;100.00
78198;BME280;67472;51.554;7.812;2023-03-20T14:20:42;100939.91;;;10.62;100.00
78198;BME280;67472;51.554;7.812;2023-03-20T14:23:43;100933.53;;;10.87;100.00
78198;BME280;67472;51.554;7.812;2023-03-20T14:26:40;100925.63;;;10.76;100.00
78198;BME280;67472;51.554;7.812;2023-03-20T14:35:31;100933.56;;;10.43;100.00
78198;BME280;67472;51.554;7.812;2023-03-20T14:38:20;100934.97;;;10.13;100.00
78198;BME280;67472;51.554;7.812;2023-03-20T14:41:15;100937.09;;;10.08;100.00
78198;BME280;67472;51.554;7.812;2023-03-20T14:44:18;100941.91;;;10.03;100.00
78198;BME280;67472;51.554;7.812;2023-03-20T14:49:57;100944.16;;;9.97;100.00
78198;BME280;67472;51.554;7.812;2023-03-20T14:52:54;100947.22;;;10.14;100.00
78198;BME280;67472;51.554;7.812;2023-03-20T14:58:55;100924.56;;;10.34;100.00
78198;BME280;67472;51.554;7.812;2023-03-20T15:01:53;100922.38;;;10.28;100.00
78198;BME280;67472;51.554;7.812;2023-03-20T15:04:41;100925.88;;;10.29;100.00
78198;BME280;67472;51.554;7.812;2023-03-20T15:07:29;100928.50;;;10.17;100.00
78198;BME280;67472;51.554;7.812;2023-03-20T15:10:15;100931.44;;;10.02;100.00
78198;BME280;67472;51.554;7.812;2023-03-20T15:13:03;100926.84;;;9.93;100.00
78198;BME280;67472;51.554;7.812;2023-03-20T15:15:56;100927.69;;;9.82;100.00
78198;BME280;67472;51.554;7.812;2023-03-20T15:18:49;100929.81;;;9.66;100.00
78198;BME280;67472;51.554;7.812;2023-03-20T15:21:39;100924.66;;;9.76;100.00
78198;BME280;67472;51.554;7.812;2023-03-20T15:24:26;100930.09;;;9.85;100.00
78198;BME280;67472;51.554;7.812;2023-03-20T15:27:12;100931.41;;;9.91;100.00
78198;BME280;67472;51.554;7.812;2023-03-20T15:29:59;100919.78;;;9.82;100.00
78198;BME280;67472;51.554;7.812;2023-03-20T15:32:47;100920.88;;;9.91;100.00
78198;BME280;67472;51.554;7.812;2023-03-20T15:35:33;100918.06;;;9.81;100.00
78198;BME280;67472;51.554;7.812;2023-03-20T15:38:18;100919.50;;;9.74;100.00
78198;BME280;67472;51.554;7.812;2023-03-20T15:41:05;100923.34;;;9.46;100.00
78198;BME280;67472;51.554;7.812;2023-03-20T15:43:50;100917.94;;;9.37;100.00
78198;BME280;67472;51.554;7.812;2023-03-20T15:46:35;100917.13;;;9.47;100.00
78198;BME280;67472;51.554;7.812;2023-03-20T15:49:21;100919.13;;;9.33;100.00
78198;BME280;67472;51.554;7.812;2023-03-20T15:52:20;100915.44;;;9.46;100.00
78198;BME280;67472;51.554;7.812;2023-03-20T15:55:13;100916.69;;;9.30;100.00
78198;BME280;67472;51.554;7.812;2023-03-20T15:58:00;100913.56;;;9.25;100.00
78198;BME280;67472;51.554;7.812;2023-03-20T16:00:47;100915.84;;;9.29;100.00
78198;BME280;67472;51.554;7.812;2023-03-20T16:03:35;100910.94;;;9.25;100.00
78198;BME280;67472;51.554;7.812;2023-03-20T16:06:23;100914.47;;;9.36;100.00
78198;BME280;67472;51.554;7.812;2023-03-20T16:09:13;100912.50;;;9.27;100.00
78198;BME280;67472;51.554;7.812;2023-03-20T16:12:01;100914.09;;;9.41;100.00
78198;BME280;67472;51.554;7.812;2023-03-20T16:14:47;100910.53;;;9.42;100.00
78198;BME280;67472;51.554;7.812;2023-03-20T16:17:33;100908.34;;;9.36;100.00
78198;BME280;67472;51.554;7.812;2023-03-20T16:20:20;100907.22;;;9.27;100.00
78198;BME280;67472;51.554;7.812;2023-03-20T16:23:07;100911.47;;;9.41;100.00
78198;BME280;67472;51.554;7.812;2023-03-20T16:25:56;100907.03;;;9.41;100.00
78198;BME280;67472;51.554;7.812;2023-03-20T16:28:46;100910.13;;;9.35;100.00
78198;BME280;67472;51.554;7.812;2023-03-20T16:31:33;100906.59;;;9.24;100.00
78198;BME280;67472;51.554;7.812;2023-03-20T16:34:25;100900.25;;;9.26;100.00
78198;BME280;67472;51.554;7.812;2023-03-20T16:37:26;100901.81;;;9.29;100.00
78198;BME280;67472;51.554;7.812;2023-03-20T16:40:21;100901.06;;;9.39;100.00
78198;BME280;67472;51.554;7.812;2023-03-20T16:43:15;100904.84;;;9.35;100.00
78198;BME280;67472;51.554;7.812;2023-03-20T16:46:04;100897.84;;;9.23;100.00
78198;BME280;67472;51.554;7.812;2023-03-20T16:48:51;100900.13;;;9.17;100.00
78198;BME280;67472;51.554;7.812;2023-03-20T16:51:36;100906.59;;;9.24;100.00
78198;BME280;67472;51.554;7.812;2023-03-20T16:54:21;100908.28;;;9.25;100.00
78198;BME280;67472;51.554;7.812;2023-03-20T16:57:14;100901.91;;;9.40;100.00
78198;BME280;67472;51.554;7.812;2023-03-20T17:00:07;100904.13;;;9.33;100.00
78198;BME280;67472;51.554;7.812;2023-03-20T17:03:12;100904.38;;;9.30;100.00